sensor_id;sensor_type;location;lat;lon;timestamp;pressure;altitude;pressure_sealevel;temperature;humidity
16461;BME280;8341;42.048;24.650;2022-10-16T00:01:05;97900.44;;;12.46;73.28
16461;BME280;8341;42.048;24.650;2022-10-16T00:03:33;97901.19;;;12.47;73.43
16461;BME280;8341;42.048;24.650;2022-10-16T00:06:01;97901.56;;;12.40;72.84
16461;BME280;8341;42.048;24.650;2022-10-16T00:08:28;97916.72;;;12.41;73.23
16461;BME280;8341;42.048;24.650;2022-10-16T00:10:59;97925.13;;;12.37;73.64
16461;BME280;8341;42.048;24.650;2022-10-16T00:13:26;97916.44;;;12.39;73.60
16461;BME280;8341;42.048;24.650;2022-10-16T00:15:57;97919.66;;;12.37;73.42
16461;BME280;8341;42.048;24.650;2022-10-16T00:18:25;97920.75;;;12.31;73.25
16461;BME280;8341;42.048;24.650;2022-10-16T00:20:52;97923.22;;;12.29;72.80
16461;BME280;8341;42.048;24.650;2022-10-16T00:23:19;97926.59;;;12.24;72.35
16461;BME280;8341;42.048;24.650;2022-10-16T00:25:54;97933.47;;;12.19;72.73
16461;BME280;8341;42.048;24.650;2022-10-16T00:28:22;97928.63;;;12.14;73.57
16461;BME280;8341;42.048;24.650;2022-10-16T00:30:49;97924.53;;;12.10;73.51
16461;BME280;8341;42.048;24.650;2022-10-16T00:33:18;97921.72;;;12.04;73.45
16461;BME280;8341;42.048;24.650;2022-10-16T00:35:45;97927.34;;;12.01;73.55
16461;BME280;8341;42.048;24.650;2022-10-16T00:38:12;97923.44;;;11.92;74.51
16461;BME280;8341;42.048;24.650;2022-10-16T00:40:39;97920.75;;;11.83;75.59
16461;BME280;8341;42.048;24.650;2022-10-16T00:43:12;97931.38;;;11.81;75.30
16461;BME280;8341;42.048;24.650;2022-10-16T00:45:40;97935.09;;;11.60;76.93
16461;BME280;8341;42.048;24.650;2022-10-16T00:48:11;97936.81;;;11.49;77.47
16461;BME280;8341;42.048;24.650;2022-10-16T00:50:41;97940.63;;;11.42;77.87
16461;BME280;8341;42.048;24.650;2022-10-16T00:53:10;97934.25;;;11.45;77.99
16461;BME280;8341;42.048;24.650;2022-10-16T00:55:38;97942.75;;;11.38;78.55
16461;BME280;8341;42.048;24.650;2022-10-16T00:58:05;97936.72;;;11.34;78.24
16461;BME280;8341;42.048;24.650;2022-10-16T01:00:33;97947.34;;;11.32;78.75
16461;BME280;8341;42.048;24.650;2022-10-16T01:03:01;97941.28;;;11.28;78.71
16461;BME280;8341;42.048;24.650;2022-10-16T01:05:33;97946.91;;;11.24;79.52
16461;BME280;8341;42.048;24.650;2022-10-16T01:08:08;97955.25;;;11.21;79.49
16461;BME280;8341;42.048;24.650;2022-10-16T01:10:43;97962.28;;;11.04;81.04
16461;BME280;8341;42.048;24.650;2022-10-16T01:13:18;97960.72;;;11.12;80.95
16461;BME280;8341;42.048;24.650;2022-10-16T01:15:49;97974.84;;;11.01;81.67
16461;BME280;8341;42.048;24.650;2022-10-16T01:18:25;97971.50;;;10.97;81.54
16461;BME280;8341;42.048;24.650;2022-10-16T01:21:01;97971.69;;;10.94;82.42
16461;BME280;8341;42.048;24.650;2022-10-16T01:23:40;97969.09;;;10.90;82.35
16461;BME280;8341;42.048;24.650;2022-10-16T01:26:29;97972.88;;;10.84;81.46
16461;BME280;8341;42.048;24.650;2022-10-16T01:29:03;97972.88;;;10.84;80.83
16461;BME280;8341;42.048;24.650;2022-10-16T01:31:36;97971.06;;;10.90;81.30
16461;BME280;8341;42.048;24.650;2022-10-16T01:34:08;97974.09;;;10.92;80.76
16461;BME280;8341;42.048;24.650;2022-10-16T01:36:41;97966.66;;;10.92;81.13
16461;BME280;8341;42.048;24.650;2022-10-16T01:39:10;97979.53;;;10.92;79.94
16461;BME280;8341;42.048;24.650;2022-10-16T01:41:41;97983.34;;;10.85;79.87
16461;BME280;8341;42.048;24.650;2022-10-16T01:44:16;97983.50;;;10.82;80.10
16461;BME280;8341;42.048;24.650;2022-10-16T01:46:47;97988.66;;;10.80;81.35
16461;BME280;8341;42.048;24.650;2022-10-16T01:49:16;97984.41;;;10.69;81.84
16461;BME280;8341;42.048;24.650;2022-10-16T01:51:46;97987.13;;;10.69;81.73
16461;BME280;8341;42.048;24.650;2022-10-16T01:54:16;97992.72;;;10.66;82.58
16461;BME280;8341;42.048;24.650;2022-10-16T01:56:46;97990.59;;;10.61;83.27
16461;BME280;8341;42.048;24.650;2022-10-16T01:59:18;97987.44;;;10.62;83.80
16461;BME280;8341;42.048;24.650;2022-10-16T02:01:50;97994.69;;;10.56;84.14
16461;BME280;8341;42.048;24.650;2022-10-16T02:04:21;97992.28;;;10.49;84.29
16461;BME280;8341;42.048;24.650;2022-10-16T02:06:50;97994.41;;;10.54;84.00
16461;BME280;8341;42.048;24.650;2022-10-16T02:09:19;97994.06;;;10.34;84.67
16461;BME280;8341;42.048;24.650;2022-10-16T02:11:46;97994.34;;;10.27;85.13
16461;BME280;8341;42.048;24.650;2022-10-16T02:14:16;97998.00;;;10.24;85.19
16461;BME280;8341;42.048;24.650;2022-10-16T02:16:45;97993.31;;;10.34;84.79
16461;BME280;8341;42.048;24.650;2022-10-16T02:19:12;97986.78;;;10.31;84.35
16461;BME280;8341;42.048;24.650;2022-10-16T02:21:44;97989.06;;;10.33;83.94
16461;BME280;8341;42.048;24.650;2022-10-16T02:24:17;97996.34;;;10.36;84.25
16461;BME280;8341;42.048;24.650;2022-10-16T02:26:51;97989.81;;;10.33;84.04
16461;BME280;8341;42.048;24.650;2022-10-16T02:29:23;97995.91;;;10.37;84.88
16461;BME280;8341;42.048;24.650;2022-10-16T02:31:55;98001.19;;;10.41;84.24
16461;BME280;8341;42.048;24.650;2022-10-16T02:34:25;97996.50;;;10.41;83.43
16461;BME280;8341;42.048;24.650;2022-10-16T02:36:53;98001.78;;;10.36;84.12
16461;BME280;8341;42.048;24.650;2022-10-16T02:39:21;97996.50;;;10.32;84.50
16461;BME280;8341;42.048;24.650;2022-10-16T02:41:48;97999.81;;;10.36;84.95
16461;BME280;8341;42.048;24.650;2022-10-16T02:44:16;98003.75;;;10.35;84.72
16461;BME280;8341;42.048;24.650;2022-10-16T02:46:44;98010.44;;;10.43;84.14
16461;BME280;8341;42.048;24.650;2022-10-16T02:49:11;98012.25;;;10.37;84.35
16461;BME280;8341;42.048;24.650;2022-10-16T02:51:38;98008.78;;;10.46;84.73
16461;BME280;8341;42.048;24.650;2022-10-16T02:54:05;98011.19;;;10.44;83.89
16461;BME280;8341;42.048;24.650;2022-10-16T02:56:32;98012.25;;;10.46;82.56
16461;BME280;8341;42.048;24.650;2022-10-16T02:58:59;98022.28;;;10.49;82.58
16461;BME280;8341;42.048;24.650;2022-10-16T03:01:26;98025.31;;;10.51;83.11
16461;BME280;8341;42.048;24.650;2022-10-16T03:03:55;98018.00;;;10.39;83.34
16461;BME280;8341;42.048;24.650;2022-10-16T03:06:22;98021.22;;;10.47;83.26
16461;BME280;8341;42.048;24.650;2022-10-16T03:08:49;98019.25;;;10.47;83.49
16461;BME280;8341;42.048;24.650;2022-10-16T03:11:16;98028.34;;;10.62;82.54
16461;BME280;8341;42.048;24.650;2022-10-16T03:13:43;98024.41;;;10.63;82.55
16461;BME280;8341;42.048;24.650;2022-10-16T03:16:10;98022.72;;;10.66;81.51
16461;BME280;8341;42.048;24.650;2022-10-16T03:18:37;98030.44;;;10.58;81.79
16461;BME280;8341;42.048;24.650;2022-10-16T03:21:05;98025.03;;;10.67;81.19
16461;BME280;8341;42.048;24.650;2022-10-16T03:23:32;98031.38;;;10.64;81.05
16461;BME280;8341;42.048;24.650;2022-10-16T03:25:59;98028.78;;;10.61;81.72
16461;BME280;8341;42.048;24.650;2022-10-16T03:28:26;98025.00;;;10.49;81.56
16461;BME280;8341;42.048;24.650;2022-10-16T03:30:53;98035.59;;;10.56;81.51
16461;BME280;8341;42.048;24.650;2022-10-16T03:33:20;98030.59;;;10.46;82.40
16461;BME280;8341;42.048;24.650;2022-10-16T03:35:51;98035.00;;;10.52;81.98
16461;BME280;8341;42.048;24.650;2022-10-16T03:38:21;98037.56;;;10.47;82.17
16461;BME280;8341;42.048;24.650;2022-10-16T03:40:48;98037.75;;;10.52;83.00
16461;BME280;8341;42.048;24.650;2022-10-16T03:43:15;98041.19;;;10.53;82.83
16461;BME280;8341;42.048;24.650;2022-10-16T03:45:42;98052.56;;;10.51;82.38
16461;BME280;8341;42.048;24.650;2022-10-16T03:48:09;98044.53;;;10.48;82.64
16461;BME280;8341;42.048;24.650;2022-10-16T03:50:36;98041.78;;;10.39;82.98
16461;BME280;8341;42.048;24.650;2022-10-16T03:53:04;98046.41;;;10.20;83.17
16461;BME280;8341;42.048;24.650;2022-10-16T03:55:32;98043.66;;;10.11;84.19
16461;BME280;8341;42.048;24.650;2022-10-16T03:57:59;98041.59;;;10.24;83.44
16461;BME280;8341;42.048;24.650;2022-10-16T04:00:26;98044.00;;;10.22;84.18
16461;BME280;8341;42.048;24.650;2022-10-16T04:02:53;98047.31;;;10.17;84.70
16461;BME280;8341;42.048;24.650;2022-10-16T04:05:20;98048.09;;;10.18;84.93
16461;BME280;8341;42.048;24.650;2022-10-16T04:07:47;98048.38;;;10.20;84.01
16461;BME280;8341;42.048;24.650;2022-10-16T04:10:14;98037.09;;;9.99;87.57
16461;BME280;8341;42.048;24.650;2022-10-16T04:12:43;98036.81;;;10.06;87.54
16461;BME280;8341;42.048;24.650;2022-10-16T04:15:10;98039.09;;;10.08;87.88
16461;BME280;8341;42.048;24.650;2022-10-16T04:17:37;98034.22;;;10.03;87.81
16461;BME280;8341;42.048;24.650;2022-10-16T04:20:05;98033.94;;;10.01;87.71
16461;BME280;8341;42.048;24.650;2022-10-16T04:22:32;98038.47;;;10.04;87.85
16461;BME280;8341;42.048;24.650;2022-10-16T04:24:59;98040.28;;;9.98;87.52
16461;BME280;8341;42.048;24.650;2022-10-16T04:27:26;98041.75;;;9.90;87.64
16461;BME280;8341;42.048;24.650;2022-10-16T04:29:55;98046.13;;;9.87;88.02
16461;BME280;8341;42.048;24.650;2022-10-16T04:32:22;98043.72;;;9.89;87.60
16461;BME280;8341;42.048;24.650;2022-10-16T04:34:49;98048.13;;;9.96;87.17
16461;BME280;8341;42.048;24.650;2022-10-16T04:37:16;98042.50;;;9.90;87.48
16461;BME280;8341;42.048;24.650;2022-10-16T04:39:43;98046.00;;;9.91;87.31
16461;BME280;8341;42.048;24.650;2022-10-16T04:42:10;98043.59;;;9.93;87.23
16461;BME280;8341;42.048;24.650;2022-10-16T04:44:38;98045.53;;;9.92;86.91
16461;BME280;8341;42.048;24.650;2022-10-16T04:47:06;98041.28;;;9.91;86.13
16461;BME280;8341;42.048;24.650;2022-10-16T04:49:33;98053.25;;;9.94;85.20
16461;BME280;8341;42.048;24.650;2022-10-16T04:52:00;98056.47;;;10.01;85.32
16461;BME280;8341;42.048;24.650;2022-10-16T04:54:27;98055.41;;;9.99;86.29
16461;BME280;8341;42.048;24.650;2022-10-16T04:56:54;98056.03;;;10.03;85.61
16461;BME280;8341;42.048;24.650;2022-10-16T04:59:21;98064.69;;;10.11;84.46
16461;BME280;8341;42.048;24.650;2022-10-16T05:01:48;98062.44;;;10.09;84.69
16461;BME280;8341;42.048;24.650;2022-10-16T05:04:17;98067.63;;;10.16;83.53
16461;BME280;8341;42.048;24.650;2022-10-16T05:06:44;98060.22;;;10.17;83.08
16461;BME280;8341;42.048;24.650;2022-10-16T05:09:12;98060.25;;;10.04;83.50
16461;BME280;8341;42.048;24.650;2022-10-16T05:11:39;98073.84;;;9.95;84.14
16461;BME280;8341;42.048;24.650;2022-10-16T05:14:06;98075.06;;;9.94;84.60
16461;BME280;8341;42.048;24.650;2022-10-16T05:16:33;98082.38;;;10.06;83.07
16461;BME280;8341;42.048;24.650;2022-10-16T05:18:59;98076.88;;;10.19;82.29
16461;BME280;8341;42.048;24.650;2022-10-16T05:21:28;98088.28;;;10.04;83.04
16461;BME280;8341;42.048;24.650;2022-10-16T05:23:55;98086.50;;;10.11;83.10
16461;BME280;8341;42.048;24.650;2022-10-16T05:26:22;98083.72;;;10.01;83.13
16461;BME280;8341;42.048;24.650;2022-10-16T05:28:49;98086.69;;;10.16;83.96
16461;BME280;8341;42.048;24.650;2022-10-16T05:31:16;98087.63;;;10.22;82.78
16461;BME280;8341;42.048;24.650;2022-10-16T05:33:43;98095.97;;;10.28;84.14
16461;BME280;8341;42.048;24.650;2022-10-16T05:36:10;98100.41;;;10.43;84.25
16461;BME280;8341;42.048;24.650;2022-10-16T05:38:39;98098.81;;;10.55;84.09
16461;BME280;8341;42.048;24.650;2022-10-16T05:41:06;98111.41;;;10.71;84.50
16461;BME280;8341;42.048;24.650;2022-10-16T05:43:33;98110.22;;;10.81;82.33
16461;BME280;8341;42.048;24.650;2022-10-16T05:46:03;98117.06;;;10.94;81.70
16461;BME280;8341;42.048;24.650;2022-10-16T05:48:31;98123.31;;;11.04;81.88
16461;BME280;8341;42.048;24.650;2022-10-16T05:50:59;98124.97;;;11.10;80.63
16461;BME280;8341;42.048;24.650;2022-10-16T05:53:27;98126.63;;;11.08;78.45
16461;BME280;8341;42.048;24.650;2022-10-16T05:55:56;98128.00;;;11.21;78.17
16461;BME280;8341;42.048;24.650;2022-10-16T05:58:24;98134.84;;;11.26;78.66
16461;BME280;8341;42.048;24.650;2022-10-16T06:00:55;98137.56;;;11.35;77.34
16461;BME280;8341;42.048;24.650;2022-10-16T06:03:22;98137.88;;;11.46;76.51
16461;BME280;8341;42.048;24.650;2022-10-16T06:05:49;98141.19;;;11.59;77.65
16461;BME280;8341;42.048;24.650;2022-10-16T06:08:17;98133.03;;;11.68;76.83
16461;BME280;8341;42.048;24.650;2022-10-16T06:10:45;98141.50;;;11.79;76.38
16461;BME280;8341;42.048;24.650;2022-10-16T06:13:14;98141.50;;;11.88;75.93
16461;BME280;8341;42.048;24.650;2022-10-16T06:15:42;98145.25;;;12.00;75.53
16461;BME280;8341;42.048;24.650;2022-10-16T06:18:09;98152.72;;;11.90;74.45
16461;BME280;8341;42.048;24.650;2022-10-16T06:20:37;98150.13;;;12.05;73.95
16461;BME280;8341;42.048;24.650;2022-10-16T06:23:04;98147.09;;;12.03;73.71
16461;BME280;8341;42.048;24.650;2022-10-16T06:25:31;98149.34;;;12.05;72.95
16461;BME280;8341;42.048;24.650;2022-10-16T06:27:58;98151.16;;;12.17;72.36
16461;BME280;8341;42.048;24.650;2022-10-16T06:30:26;98153.09;;;12.25;72.96
16461;BME280;8341;42.048;24.650;2022-10-16T06:32:53;98154.25;;;12.42;74.70
16461;BME280;8341;42.048;24.650;2022-10-16T06:35:20;98154.06;;;12.55;75.84
16461;BME280;8341;42.048;24.650;2022-10-16T06:37:47;98158.84;;;12.69;76.31
16461;BME280;8341;42.048;24.650;2022-10-16T06:40:14;98157.56;;;12.79;75.52
16461;BME280;8341;42.048;24.650;2022-10-16T06:42:42;98162.81;;;12.68;71.19
16461;BME280;8341;42.048;24.650;2022-10-16T06:45:09;98171.34;;;12.19;72.15
16461;BME280;8341;42.048;24.650;2022-10-16T06:47:38;98171.19;;;12.23;73.14
16461;BME280;8341;42.048;24.650;2022-10-16T06:50:05;98166.53;;;11.96;73.72
16461;BME280;8341;42.048;24.650;2022-10-16T06:52:33;98172.19;;;11.83;73.64
16461;BME280;8341;42.048;24.650;2022-10-16T06:55:00;98180.03;;;12.00;73.42
16461;BME280;8341;42.048;24.650;2022-10-16T06:57:28;98180.03;;;12.09;73.48
16461;BME280;8341;42.048;24.650;2022-10-16T06:59:55;98175.81;;;11.89;74.52
16461;BME280;8341;42.048;24.650;2022-10-16T07:02:22;98183.84;;;11.84;75.24
16461;BME280;8341;42.048;24.650;2022-10-16T07:04:50;98191.91;;;11.97;72.84
16461;BME280;8341;42.048;24.650;2022-10-16T07:07:17;98189.78;;;12.01;72.90
16461;BME280;8341;42.048;24.650;2022-10-16T07:09:44;98180.03;;;12.00;74.69
16461;BME280;8341;42.048;24.650;2022-10-16T07:12:11;98184.44;;;12.06;77.42
16461;BME280;8341;42.048;24.650;2022-10-16T07:14:38;98182.47;;;12.07;76.92
16461;BME280;8341;42.048;24.650;2022-10-16T07:17:05;98187.94;;;12.07;77.52
16461;BME280;8341;42.048;24.650;2022-10-16T07:19:32;98192.75;;;12.21;77.86
16461;BME280;8341;42.048;24.650;2022-10-16T07:22:01;98188.81;;;12.22;80.08
16461;BME280;8341;42.048;24.650;2022-10-16T07:24:28;98193.34;;;12.34;80.21
16461;BME280;8341;42.048;24.650;2022-10-16T07:26:55;98196.16;;;12.48;80.76
16461;BME280;8341;42.048;24.650;2022-10-16T07:29:22;98190.06;;;12.63;79.38
16461;BME280;8341;42.048;24.650;2022-10-16T07:31:49;98187.25;;;12.81;77.58
16461;BME280;8341;42.048;24.650;2022-10-16T07:34:17;98190.41;;;12.88;77.08
16461;BME280;8341;42.048;24.650;2022-10-16T07:36:47;98195.81;;;12.97;75.95
16461;BME280;8341;42.048;24.650;2022-10-16T07:39:16;98193.28;;;13.17;75.10
16461;BME280;8341;42.048;24.650;2022-10-16T07:41:43;98195.16;;;13.11;74.91
16461;BME280;8341;42.048;24.650;2022-10-16T07:44:10;98189.16;;;13.22;75.00
16461;BME280;8341;42.048;24.650;2022-10-16T07:46:37;98189.91;;;13.23;74.49
16461;BME280;8341;42.048;24.650;2022-10-16T07:49:04;98203.16;;;13.24;75.31
16461;BME280;8341;42.048;24.650;2022-10-16T07:51:31;98196.91;;;13.24;74.49
16461;BME280;8341;42.048;24.650;2022-10-16T07:53:58;98202.84;;;13.46;73.67
16461;BME280;8341;42.048;24.650;2022-10-16T07:56:27;98199.25;;;13.40;73.55
16461;BME280;8341;42.048;24.650;2022-10-16T07:58:54;98200.41;;;13.48;73.26
16461;BME280;8341;42.048;24.650;2022-10-16T08:01:21;98207.19;;;13.38;72.65
16461;BME280;8341;42.048;24.650;2022-10-16T08:03:50;98205.56;;;13.46;72.88
16461;BME280;8341;42.048;24.650;2022-10-16T08:06:17;98211.28;;;13.57;72.65
16461;BME280;8341;42.048;24.650;2022-10-16T08:08:44;98198.75;;;13.65;71.34
16461;BME280;8341;42.048;24.650;2022-10-16T08:11:13;98201.13;;;13.72;70.92
16461;BME280;8341;42.048;24.650;2022-10-16T08:13:42;98211.47;;;13.92;70.13
16461;BME280;8341;42.048;24.650;2022-10-16T08:16:09;98215.59;;;13.87;70.29
16461;BME280;8341;42.048;24.650;2022-10-16T08:18:38;98205.50;;;13.93;69.46
16461;BME280;8341;42.048;24.650;2022-10-16T08:21:06;98207.16;;;14.14;68.76
16461;BME280;8341;42.048;24.650;2022-10-16T08:23:34;98213.28;;;14.09;66.93
16461;BME280;8341;42.048;24.650;2022-10-16T08:26:05;98207.16;;;14.14;68.88
16461;BME280;8341;42.048;24.650;2022-10-16T08:28:33;98207.00;;;14.32;67.94
16461;BME280;8341;42.048;24.650;2022-10-16T08:31:09;98210.00;;;14.34;66.71
16461;BME280;8341;42.048;24.650;2022-10-16T08:33:37;98209.25;;;14.34;63.89
16461;BME280;8341;42.048;24.650;2022-10-16T08:36:05;98211.97;;;14.49;66.05
16461;BME280;8341;42.048;24.650;2022-10-16T08:38:32;98213.50;;;14.50;65.73
16461;BME280;8341;42.048;24.650;2022-10-16T08:41:17;98209.16;;;14.58;63.50
16461;BME280;8341;42.048;24.650;2022-10-16T08:44:03;98212.66;;;14.58;64.21
16461;BME280;8341;42.048;24.650;2022-10-16T08:46:42;98211.47;;;14.79;64.70
16461;BME280;8341;42.048;24.650;2022-10-16T08:49:13;98224.16;;;14.77;64.37
16461;BME280;8341;42.048;24.650;2022-10-16T08:51:41;98220.41;;;14.60;64.49
16461;BME280;8341;42.048;24.650;2022-10-16T08:54:20;98222.06;;;14.86;64.47
16461;BME280;8341;42.048;24.650;2022-10-16T08:56:49;98218.84;;;14.88;62.58
16461;BME280;8341;42.048;24.650;2022-10-16T08:59:17;98215.38;;;15.07;61.61
16461;BME280;8341;42.048;24.650;2022-10-16T09:01:49;98215.09;;;15.05;61.73
16461;BME280;8341;42.048;24.650;2022-10-16T09:04:46;98210.03;;;15.19;62.25
16461;BME280;8341;42.048;24.650;2022-10-16T09:07:24;98217.53;;;15.18;61.61
16461;BME280;8341;42.048;24.650;2022-10-16T09:10:06;98213.13;;;15.26;59.59
16461;BME280;8341;42.048;24.650;2022-10-16T09:12:40;98216.50;;;15.16;60.28
16461;BME280;8341;42.048;24.650;2022-10-16T09:15:20;98209.44;;;15.29;61.49
16461;BME280;8341;42.048;24.650;2022-10-16T09:17:58;98219.06;;;15.39;60.73
16461;BME280;8341;42.048;24.650;2022-10-16T09:20:34;98230.47;;;15.32;60.43
16461;BME280;8341;42.048;24.650;2022-10-16T09:23:13;98221.41;;;15.46;59.54
16461;BME280;8341;42.048;24.650;2022-10-16T09:25:44;98221.72;;;15.48;58.86
16461;BME280;8341;42.048;24.650;2022-10-16T09:28:13;98223.28;;;15.55;57.66
16461;BME280;8341;42.048;24.650;2022-10-16T09:30:40;98222.16;;;15.67;58.09
16461;BME280;8341;42.048;24.650;2022-10-16T09:33:10;98231.06;;;15.77;58.41
16461;BME280;8341;42.048;24.650;2022-10-16T09:35:40;98225.16;;;15.63;58.19
16461;BME280;8341;42.048;24.650;2022-10-16T09:38:07;98219.63;;;15.84;58.61
16461;BME280;8341;42.048;24.650;2022-10-16T09:40:36;98220.38;;;15.84;57.24
16461;BME280;8341;42.048;24.650;2022-10-16T09:43:16;98223.47;;;15.92;56.99
16461;BME280;8341;42.048;24.650;2022-10-16T09:45:54;98218.75;;;15.98;56.41
16461;BME280;8341;42.048;24.650;2022-10-16T09:48:26;98213.25;;;15.98;56.59
16461;BME280;8341;42.048;24.650;2022-10-16T09:50:58;98215.75;;;15.96;57.08
16461;BME280;8341;42.048;24.650;2022-10-16T09:53:38;98220.22;;;15.93;55.71
16461;BME280;8341;42.048;24.650;2022-10-16T09:56:06;98211.13;;;16.07;55.89
16461;BME280;8341;42.048;24.650;2022-10-16T09:58:33;98215.00;;;16.21;55.59
16461;BME280;8341;42.048;24.650;2022-10-16T10:01:00;98203.47;;;16.17;54.98
16461;BME280;8341;42.048;24.650;2022-10-16T10:03:44;98200.84;;;16.34;56.03
16461;BME280;8341;42.048;24.650;2022-10-16T10:06:18;98199.75;;;16.51;55.52
16461;BME280;8341;42.048;24.650;2022-10-16T10:08:56;98193.44;;;16.71;57.12
16461;BME280;8341;42.048;24.650;2022-10-16T10:11:44;98189.09;;;16.59;52.64
16461;BME280;8341;42.048;24.650;2022-10-16T10:14:21;98189.97;;;16.76;53.64
16461;BME280;8341;42.048;24.650;2022-10-16T10:16:50;98189.03;;;16.90;56.16
16461;BME280;8341;42.048;24.650;2022-10-16T10:19:20;98190.66;;;17.08;53.41
16461;BME280;8341;42.048;24.650;2022-10-16T10:21:48;98189.22;;;17.18;53.91
16461;BME280;8341;42.048;24.650;2022-10-16T10:24:17;98175.56;;;17.45;51.92
16461;BME280;8341;42.048;24.650;2022-10-16T10:26:53;98179.31;;;17.42;49.94
16461;BME280;8341;42.048;24.650;2022-10-16T10:29:31;98172.41;;;17.64;52.29
16461;BME280;8341;42.048;24.650;2022-10-16T10:32:10;98168.94;;;17.74;50.94
16461;BME280;8341;42.048;24.650;2022-10-16T10:34:53;98167.44;;;17.84;49.83
16461;BME280;8341;42.048;24.650;2022-10-16T10:37:35;98173.25;;;17.97;48.56
16461;BME280;8341;42.048;24.650;2022-10-16T10:40:11;98169.97;;;17.93;47.58
16461;BME280;8341;42.048;24.650;2022-10-16T10:42:44;98166.88;;;17.64;47.96
16461;BME280;8341;42.048;24.650;2022-10-16T10:45:25;98162.09;;;17.64;47.97
16461;BME280;8341;42.048;24.650;2022-10-16T10:50:47;98152.53;;;17.54;47.62
16461;BME280;8341;42.048;24.650;2022-10-16T10:53:29;98151.31;;;17.55;46.99
16461;BME280;8341;42.048;24.650;2022-10-16T10:56:09;98148.78;;;17.57;46.14
16461;BME280;8341;42.048;24.650;2022-10-16T11:01:50;98143.81;;;17.72;45.71
16461;BME280;8341;42.048;24.650;2022-10-16T11:04:40;98151.34;;;17.77;44.97
16461;BME280;8341;42.048;24.650;2022-10-16T11:07:18;98154.38;;;17.79;43.32
16461;BME280;8341;42.048;24.650;2022-10-16T11:09:50;98159.91;;;17.90;42.69
16461;BME280;8341;42.048;24.650;2022-10-16T11:12:21;98157.94;;;18.07;42.02
16461;BME280;8341;42.048;24.650;2022-10-16T11:14:54;98143.63;;;18.09;39.40
16461;BME280;8341;42.048;24.650;2022-10-16T11:17:26;98151.94;;;18.26;38.85
16461;BME280;8341;42.048;24.650;2022-10-16T11:19:58;98149.16;;;18.14;39.00
16461;BME280;8341;42.048;24.650;2022-10-16T11:22:32;98147.66;;;18.13;38.21
16461;BME280;8341;42.048;24.650;2022-10-16T11:25:06;98143.41;;;18.35;38.46
16461;BME280;8341;42.048;24.650;2022-10-16T11:27:43;98141.88;;;18.34;38.68
16461;BME280;8341;42.048;24.650;2022-10-16T11:30:16;98136.13;;;18.32;36.95
16461;BME280;8341;42.048;24.650;2022-10-16T11:33:04;98132.88;;;18.28;38.54
16461;BME280;8341;42.048;24.650;2022-10-16T11:35:39;98119.31;;;18.07;40.16
16461;BME280;8341;42.048;24.650;2022-10-16T11:38:25;98127.78;;;17.87;36.80
16461;BME280;8341;42.048;24.650;2022-10-16T11:40:59;98123.06;;;18.04;40.38
16461;BME280;8341;42.048;24.650;2022-10-16T11:43:30;98104.47;;;17.83;37.54
16461;BME280;8341;42.048;24.650;2022-10-16T11:46:03;98125.06;;;18.04;37.58
16461;BME280;8341;42.048;24.650;2022-10-16T11:48:36;98113.78;;;17.96;35.40
16461;BME280;8341;42.048;24.650;2022-10-16T11:51:11;98127.59;;;18.30;35.53
16461;BME280;8341;42.048;24.650;2022-10-16T11:53:46;98127.56;;;18.46;37.49
16461;BME280;8341;42.048;24.650;2022-10-16T11:56:19;98131.09;;;18.41;38.49
16461;BME280;8341;42.048;24.650;2022-10-16T11:58:55;98128.34;;;18.47;39.74
16461;BME280;8341;42.048;24.650;2022-10-16T12:01:30;98132.34;;;18.57;39.04
16461;BME280;8341;42.048;24.650;2022-10-16T12:04:12;98134.63;;;18.58;38.54
16461;BME280;8341;42.048;24.650;2022-10-16T12:06:44;98125.06;;;18.43;38.53
16461;BME280;8341;42.048;24.650;2022-10-16T12:09:26;98135.88;;;18.52;40.09
16461;BME280;8341;42.048;24.650;2022-10-16T12:11:54;98127.34;;;18.61;41.10
16461;BME280;8341;42.048;24.650;2022-10-16T12:14:34;98125.56;;;18.69;40.13
16461;BME280;8341;42.048;24.650;2022-10-16T12:17:04;98128.84;;;18.40;38.99
16461;BME280;8341;42.048;24.650;2022-10-16T12:19:57;98122.81;;;18.47;39.47
16461;BME280;8341;42.048;24.650;2022-10-16T12:22:28;98135.88;;;18.41;39.16
16461;BME280;8341;42.048;24.650;2022-10-16T12:24:57;98125.84;;;18.49;40.21
16461;BME280;8341;42.048;24.650;2022-10-16T12:27:28;98133.59;;;18.45;39.41
16461;BME280;8341;42.048;24.650;2022-10-16T12:29:57;98131.09;;;18.41;39.79
16461;BME280;8341;42.048;24.650;2022-10-16T12:32:30;98119.03;;;18.39;39.79
16461;BME280;8341;42.048;24.650;2022-10-16T12:34:58;98131.88;;;18.53;39.96
16461;BME280;8341;42.048;24.650;2022-10-16T12:37:30;98130.34;;;18.52;39.96
16461;BME280;8341;42.048;24.650;2022-10-16T12:40:11;98135.13;;;18.57;40.05
16461;BME280;8341;42.048;24.650;2022-10-16T12:42:39;98124.81;;;18.35;39.97
16461;BME280;8341;42.048;24.650;2022-10-16T12:45:25;98126.59;;;18.38;39.84
16461;BME280;8341;42.048;24.650;2022-10-16T12:47:53;98113.53;;;18.22;40.14
16461;BME280;8341;42.048;24.650;2022-10-16T12:50:38;98137.91;;;18.51;40.76
16461;BME280;8341;42.048;24.650;2022-10-16T12:53:18;98135.88;;;18.63;39.02
16461;BME280;8341;42.048;24.650;2022-10-16T12:55:56;98133.63;;;18.61;37.82
16461;BME280;8341;42.048;24.650;2022-10-16T12:58:42;98132.59;;;18.64;38.83
16461;BME280;8341;42.048;24.650;2022-10-16T13:01:22;98143.41;;;18.62;37.55
16461;BME280;8341;42.048;24.650;2022-10-16T13:04:03;98139.38;;;18.69;37.78
16461;BME280;8341;42.048;24.650;2022-10-16T13:06:40;98135.63;;;18.55;38.47
16461;BME280;8341;42.048;24.650;2022-10-16T13:09:23;98130.84;;;18.67;37.97
16461;BME280;8341;42.048;24.650;2022-10-16T13:12:18;98145.91;;;18.71;36.92
16461;BME280;8341;42.048;24.650;2022-10-16T13:15:01;98128.34;;;18.47;36.05
16461;BME280;8341;42.048;24.650;2022-10-16T13:17:39;98142.16;;;18.63;36.58
16461;BME280;8341;42.048;24.650;2022-10-16T13:20:16;98149.19;;;18.59;36.58
16461;BME280;8341;42.048;24.650;2022-10-16T13:22:51;98151.22;;;18.53;37.13
16461;BME280;8341;42.048;24.650;2022-10-16T13:25:31;98151.69;;;18.57;38.52